AirNav   TITAN Aviation Fuels
 
 1429 users online  

AZ28 Thunder Ridge Airpark
Morristown, Arizona, USA

GOING TO MORRISTOWN?


FAA INFORMATION EFFECTIVE 30 DECEMBER 2021

Location

FAA Identifier: AZ28
Lat/Long: 33-49-17.4100N 112-34-23.2200W
33-49.290167N 112-34.387000W
33.8215028,-112.5731167
(estimated)
Elevation: 1915 ft. / 584 m (estimated)
From city: 3 miles SE of MORRISTOWN, AZ
Time zone: UTC -7 (year round; does not observe DST)
Zip code: 85342

Airport Operations

Airport use: Private use. Permission required prior to landing
Activation date: 06/1993
Control tower: no
ARTCC: ALBUQUERQUE CENTER
FSS: PRESCOTT FLIGHT SERVICE STATION
Attendance: UNATNDD
Wind indicator: yes
Segmented circle: no
Lights: FOR MIRL RY 17/35 DUSK TO DAWN.

Airport Communications

WX AWOS-3 at E25 (14 nm NW): 121.375 (928-684-2487)

Nearby radio navigation aids

VOR radial/distance  VOR name  Freq  Var
BXKr016/25.4BUCKEYE VORTAC110.6014E
PXRr296/38.1PHOENIX VORTAC115.6012E

Airport Services

Runway Information

Runway 17/35

Dimensions: 2600 x 40 ft. / 792 x 12 m
Surface: asphalt
Runway edge lights: medium intensity
RUNWAY 17  RUNWAY 35
Traffic pattern: leftright
Displaced threshold: 450 ft.
RY 17 DSPLCD THLD MARKED WITH PAINT STRIPE ACROSS THE RY.
no

Airport Ownership and Management from official FAA records

Ownership: Privately-owned
Owner: THUNDER RIDGE AIRPARK HOA
P.O. BOX 492, 37526 N. 237TH AVE.
MORRISTOWN, AZ 85342
Phone (623) 388-0199
Manager: JOHN ANDERSON
P.O. BOX 492, 37526 N. 237TH AVE.
MORRISTOWN, AZ 85342
Phone (602) 980-8174

Airport Operational Statistics

Aircraft based on the field: 13
Single engine airplanes: 13
    

Additional Remarks

FOR CD CTC LUKE APCH AT 623-856-7361. IF UNA, CTC PHOENIX APCH AT 602-306-2565.

Instrument Procedures

There are no published instrument procedures at AZ28.

Some nearby airports with instrument procedures:

KLUF - Luke Air Force Base (20 nm SE)
KGEU - Glendale Municipal Airport (22 nm SE)
KDVT - Phoenix Deer Valley Airport (26 nm E)
KGYR - Phoenix Goodyear Airport (26 nm SE)
KSDL - Scottsdale Airport (35 nm E)
 
Loc | Ops | Rwys | IFR | FBO | Links
Com | Nav | Svcs | Stats | Notes
Area around AZ28 (Thunder Ridge Airpark)
 
Road maps at: MapQuest Bing Google
 
Aerial photo
WARNING: Photo may not be current or correct
Aerial photo of AZ28 (Thunder Ridge Airpark)
Photo by Jon Nelson
Photo taken 20-Aug-2008
looking SW with Route 60 at the top.

Do you have a better or more recent aerial photo of Thunder Ridge Airpark that you would like to share? If so, please send us your photo.

 
Sectional chart

 
Airport distance calculator
Flying to Thunder Ridge Airpark? Find the distance to fly.

From to AZ28

Sunrise and sunset
Times for 19-Jan-2022
 Local
(UTC-7)
 Zulu
(UTC)
Morning civil twilight07:0814:08
Sunrise07:3514:35
Sunset17:4700:47
Evening civil twilight18:1401:14

Current date and time
Zulu (UTC)  19-Jan-2022 16:23:56
Local (UTC-7)  19-Jan-2022 09:23:56
 
METAR
KLUF 
21nm SE 
191558Z AUTO 00000KT 10SM CLR 11/07 A3010 RMK AO2 SLP191 T01060065 $
KGEU 
22nm SE 
191548Z 00000KT 10SM FEW200 08/06 A3011
KBXK 
25nm S 
191555Z AUTO 00000KT 10SM 10/04 A3011 RMK A01
KGYR 
26nm SE 
191547Z 05004KT 10SM FEW070 SCT100 09/03 A3010
KDVT 
27nm E 
191553Z 12003KT 10SM OVC075 11/07 A3010 RMK AO2 SLP185 T01110067
TAF
KLUF 
21nm SE 
191200Z 1912/2018 VRB06KT 9999 FEW070 SCT080 QNH3002INS BECMG 1919/1920 VRB06KT 9999 FEW070 SCT200 QNH3004INS BECMG 2005/2006 VRB06KT 9999 SKC QNH3007INS TX20/1923Z TN08/1913Z
NOTAMs
Click for the latest NOTAMs
NOTAMs are issued by the DoD/FAA and will open in a separate window not controlled by AirNav.

 

 
 

Would you like to see your business listed on this page?

 If your business provides an interesting product or service to pilots, flight crews, aircraft, or users of the Thunder Ridge Airpark, you should consider listing it here.  To start the listing process, click on the button below
 
Add a business
 

Other Pages about Thunder Ridge Airpark

Update a link
 
Copyright © AirNav, LLC. All rights reserved. Privacy Policy  Contact